createdAt,value
2018-01-27T00:00:05.409Z,99.99
2018-01-27T00:01:05.408Z,99.99
2018-01-27T00:02:05.416Z,99.99
2018-01-27T00:03:05.428Z,99.99
2018-01-27T00:04:05.541Z,99.99
2018-01-27T00:05:05.446Z,99.99
2018-01-27T00:06:05.451Z,99.99
2018-01-27T00:07:05.453Z,99.99
2018-01-27T00:08:05.513Z,99.99
2018-01-27T00:09:05.477Z,99.99
2018-01-27T00:10:05.482Z,99.99
2018-01-27T00:11:05.489Z,99.99
2018-01-27T00:12:05.489Z,99.99
2018-01-27T00:13:05.504Z,99.99
2018-01-27T00:14:05.510Z,99.99
2018-01-27T00:15:05.520Z,99.99
2018-01-27T00:16:05.532Z,99.99
2018-01-27T00:17:05.541Z,99.99
2018-01-27T00:18:05.543Z,99.99
2018-01-27T00:19:05.546Z,99.99
2018-01-27T00:20:05.559Z,99.99
2018-01-27T00:21:05.562Z,99.99
2018-01-27T00:22:05.585Z,99.99
2018-01-27T00:23:05.581Z,99.99
2018-01-27T00:24:05.589Z,99.99
2018-01-27T00:25:05.598Z,99.99
2018-01-27T00:26:05.608Z,99.99
2018-01-27T00:27:05.615Z,99.99
2018-01-27T00:28:05.615Z,99.99
2018-01-27T00:29:05.630Z,99.99
2018-01-27T00:30:05.636Z,99.99
2018-01-27T00:31:05.648Z,99.99
2018-01-27T00:32:05.661Z,99.99
2018-01-27T00:33:05.654Z,99.99
2018-01-27T00:34:05.666Z,99.99
2018-01-27T00:35:05.677Z,99.99
2018-01-27T00:36:05.681Z,99.99
2018-01-27T00:37:05.693Z,99.99
2018-01-27T00:38:05.705Z,99.99
2018-01-27T00:39:05.710Z,99.99
2018-01-27T00:40:05.717Z,99.99
2018-01-27T00:41:05.711Z,99.99
2018-01-27T00:42:05.718Z,99.99
2018-01-27T00:43:05.732Z,99.99
2018-01-27T00:44:05.745Z,99.99
2018-01-27T00:45:05.752Z,99.99
2018-01-27T00:46:05.758Z,99.99
2018-01-27T00:47:05.764Z,99.99
2018-01-27T00:48:05.770Z,99.99
2018-01-27T00:49:05.780Z,99.99
2018-01-27T00:50:05.792Z,99.99
2018-01-27T00:51:05.803Z,99.99
2018-01-27T00:52:05.793Z,99.99
2018-01-27T00:53:05.813Z,99.99
2018-01-27T00:54:05.818Z,99.99
2018-01-27T00:55:05.857Z,99.99
2018-01-27T00:56:05.861Z,99.99
2018-01-27T00:57:05.844Z,99.99
2018-01-27T00:58:05.849Z,99.99
2018-01-27T00:59:05.852Z,99.99
2018-01-27T01:00:05.866Z,99.99
2018-01-27T01:01:05.871Z,99.99
2018-01-27T01:02:05.881Z,99.99
2018-01-27T01:03:05.882Z,99.99
2018-01-27T01:04:05.894Z,99.99
2018-01-27T01:05:05.944Z,99.99
2018-01-27T01:06:05.911Z,99.99
2018-01-27T01:07:05.919Z,99.99
2018-01-27T01:08:05.930Z,99.99
2018-01-27T01:09:05.934Z,99.99
2018-01-27T01:10:05.941Z,99.99
2018-01-27T01:11:05.944Z,99.99
2018-01-27T01:12:05.957Z,99.99
2018-01-27T01:13:05.965Z,99.99
2018-01-27T01:14:05.970Z,99.99
2018-01-27T01:15:05.970Z,99.99
2018-01-27T01:16:05.984Z,99.99
2018-01-27T01:17:05.992Z,99.99
2018-01-27T01:18:06.005Z,99.99
2018-01-27T01:19:06.008Z,99.99
2018-01-27T01:20:06.015Z,99.99
2018-01-27T01:21:06.028Z,99.99
2018-01-27T01:22:06.026Z,99.99
2018-01-27T01:23:06.026Z,99.99
2018-01-27T01:24:06.047Z,99.99
2018-01-27T01:25:06.051Z,99.99
2018-01-27T01:26:06.057Z,99.99
2018-01-27T01:27:06.064Z,99.99
2018-01-27T01:28:06.075Z,99.99
2018-01-27T01:29:06.077Z,99.99
2018-01-27T01:30:06.091Z,99.99
2018-01-27T01:31:06.094Z,99.99
2018-01-27T01:32:06.100Z,99.99
2018-01-27T01:33:06.185Z,99.99
2018-01-27T01:34:06.123Z,99.99
2018-01-27T01:35:06.124Z,99.99
2018-01-27T01:36:06.133Z,99.99
2018-01-27T01:37:06.139Z,99.99
2018-01-27T01:38:06.143Z,99.99
2018-01-27T01:39:06.152Z,99.99
2018-01-27T01:40:06.161Z,99.99
2018-01-27T01:41:06.172Z,99.99
2018-01-27T01:42:06.191Z,99.99
2018-01-27T01:43:06.186Z,99.99
2018-01-27T01:44:06.200Z,99.99
2018-01-27T01:45:06.237Z,99.99
2018-01-27T01:46:06.224Z,99.99
2018-01-27T01:47:06.214Z,99.99
2018-01-27T01:48:06.219Z,99.99
2018-01-27T01:49:06.237Z,99.99
2018-01-27T01:50:06.235Z,99.99
2018-01-27T01:51:06.237Z,99.99
2018-01-27T01:52:06.250Z,99.99
2018-01-27T01:53:06.258Z,99.99
2018-01-27T01:54:06.266Z,99.99
2018-01-27T01:55:06.268Z,99.99
2018-01-27T01:56:06.302Z,99.99
2018-01-27T01:57:06.292Z,99.99
2018-01-27T01:58:06.293Z,99.99
2018-01-27T01:59:06.304Z,99.99
2018-01-27T02:00:06.309Z,99.99
2018-01-27T02:01:06.326Z,99.99
2018-01-27T02:02:06.328Z,99.99
2018-01-27T02:03:06.337Z,99.99
2018-01-27T02:04:06.338Z,99.99
2018-01-27T02:05:06.345Z,99.99
2018-01-27T02:06:06.353Z,99.99
2018-01-27T02:07:06.363Z,99.99
2018-01-27T02:08:06.378Z,99.99
2018-01-27T02:09:06.378Z,99.99
2018-01-27T02:10:06.380Z,99.99
2018-01-27T02:11:06.463Z,99.99
2018-01-27T02:12:06.399Z,99.99
2018-01-27T02:13:06.405Z,99.99
2018-01-27T02:14:06.418Z,99.99
2018-01-27T02:15:06.425Z,99.99
2018-01-27T02:16:06.439Z,99.99
2018-01-27T02:17:06.431Z,99.99
2018-01-27T02:18:06.447Z,99.99
2018-01-27T02:19:06.462Z,99.99
2018-01-27T02:20:06.446Z,99.99
2018-01-27T02:21:06.452Z,99.99
2018-01-27T02:22:06.470Z,99.99
2018-01-27T02:23:06.482Z,99.99
2018-01-27T02:24:06.490Z,99.99
2018-01-27T02:25:06.491Z,99.99
2018-01-27T02:26:06.507Z,99.99
2018-01-27T02:27:06.509Z,99.99
2018-01-27T02:28:06.514Z,99.99
2018-01-27T02:29:06.522Z,99.99
2018-01-27T02:30:06.528Z,99.99
2018-01-27T02:31:06.536Z,99.99
2018-01-27T02:32:06.590Z,99.99
2018-01-27T02:33:06.543Z,99.99
2018-01-27T02:34:06.614Z,99.99
2018-01-27T02:35:06.580Z,99.99
2018-01-27T02:36:06.574Z,99.99
2018-01-27T02:37:06.575Z,99.99
2018-01-27T02:38:06.580Z,99.99
2018-01-27T02:39:06.594Z,99.99
2018-01-27T02:40:06.602Z,99.99
2018-01-27T02:41:06.625Z,99.99
2018-01-27T02:42:06.628Z,99.99
2018-01-27T02:43:06.627Z,99.99
2018-01-27T02:44:06.617Z,99.99
2018-01-27T02:45:06.636Z,99.99
2018-01-27T02:46:06.658Z,99.99
2018-01-27T02:47:06.660Z,99.99
2018-01-27T02:48:06.655Z,99.99
2018-01-27T02:49:06.668Z,99.99
2018-01-27T02:50:06.737Z,99.99
2018-01-27T02:51:06.684Z,99.99
2018-01-27T02:52:06.703Z,99.99
2018-01-27T02:53:06.696Z,99.99
2018-01-27T02:54:06.706Z,99.99
2018-01-27T02:55:06.708Z,99.99
2018-01-27T02:56:06.721Z,99.99
2018-01-27T02:57:06.732Z,99.99
2018-01-27T02:58:06.731Z,99.99
2018-01-27T02:59:06.740Z,99.99
2018-01-27T03:00:06.748Z,99.99
2018-01-27T03:01:06.754Z,99.99
2018-01-27T03:02:06.760Z,99.99
2018-01-27T03:03:06.766Z,99.99
2018-01-27T03:04:06.772Z,99.99
2018-01-27T03:05:06.792Z,99.99
2018-01-27T03:06:06.790Z,99.99
2018-01-27T03:07:06.801Z,99.99
2018-01-27T03:08:06.805Z,99.99
2018-01-27T03:09:06.846Z,99.99
2018-01-27T03:10:06.830Z,99.99
2018-01-27T03:11:06.830Z,99.99
2018-01-27T03:12:06.832Z,99.99
2018-01-27T03:13:06.884Z,99.99
2018-01-27T03:14:06.842Z,99.99
2018-01-27T03:15:06.954Z,99.99
2018-01-27T03:16:06.864Z,99.99
2018-01-27T03:17:06.864Z,99.99
2018-01-27T03:18:06.878Z,99.99
2018-01-27T03:19:06.886Z,99.99
2018-01-27T03:20:06.893Z,99.99
2018-01-27T03:21:06.896Z,99.99
2018-01-27T03:22:06.904Z,99.99
2018-01-27T03:23:06.983Z,99.99
2018-01-27T03:24:06.921Z,99.99
2018-01-27T03:25:06.945Z,99.99
2018-01-27T03:26:06.934Z,99.99
2018-01-27T03:27:06.954Z,99.99
2018-01-27T03:28:06.973Z,99.99
2018-01-27T03:29:06.961Z,99.99
2018-01-27T03:30:06.964Z,99.99
2018-01-27T03:31:06.973Z,99.99
2018-01-27T03:32:06.976Z,99.99
2018-01-27T03:33:06.986Z,99.99
2018-01-27T03:34:06.994Z,99.99
2018-01-27T03:35:06.996Z,99.99
2018-01-27T03:36:07.007Z,99.99
2018-01-27T03:37:07.012Z,99.99
2018-01-27T03:38:07.020Z,99.99
2018-01-27T03:39:07.027Z,99.99
2018-01-27T03:40:07.032Z,99.99
2018-01-27T03:41:07.039Z,99.99
2018-01-27T03:42:07.050Z,99.99
2018-01-27T03:43:07.162Z,99.99
2018-01-27T03:44:07.073Z,99.99
2018-01-27T03:45:07.066Z,99.99
2018-01-27T03:46:07.079Z,99.99
2018-01-27T03:47:07.082Z,99.99
2018-01-27T03:48:07.087Z,99.99
2018-01-27T03:49:07.095Z,99.99
2018-01-27T03:50:07.111Z,99.99
2018-01-27T03:51:07.107Z,99.99
2018-01-27T03:52:07.114Z,99.99
2018-01-27T03:53:07.126Z,99.99
2018-01-27T03:54:07.135Z,99.99
2018-01-27T03:55:07.144Z,99.99
2018-01-27T03:56:07.148Z,99.99
2018-01-27T03:57:07.160Z,99.99
2018-01-27T03:58:07.162Z,99.99
2018-01-27T03:59:07.170Z,99.99
2018-01-27T04:00:07.173Z,99.99
2018-01-27T04:01:07.197Z,99.99
2018-01-27T04:02:07.191Z,99.99
2018-01-27T04:03:07.242Z,99.99
2018-01-27T04:04:07.202Z,99.99
2018-01-27T04:05:07.212Z,99.99
2018-01-27T04:06:07.658Z,99.99
2018-01-27T04:07:07.252Z,99.99
2018-01-27T04:08:07.243Z,99.99
2018-01-27T04:09:07.239Z,99.99
2018-01-27T04:10:07.242Z,99.99
2018-01-27T04:11:07.251Z,99.99
2018-01-27T04:12:07.261Z,99.99
2018-01-27T04:13:07.295Z,99.99
2018-01-27T04:14:07.276Z,99.99
2018-01-27T04:15:07.284Z,99.99
2018-01-27T04:16:07.277Z,99.99
2018-01-27T04:17:07.295Z,99.99
2018-01-27T04:18:07.308Z,99.99
2018-01-27T04:19:07.306Z,99.99
2018-01-27T04:20:07.363Z,99.99
2018-01-27T04:21:07.344Z,99.99
2018-01-27T04:22:07.357Z,99.99
2018-01-27T04:23:07.338Z,99.99
2018-01-27T04:24:07.337Z,99.99
2018-01-27T04:25:07.349Z,99.99
2018-01-27T04:26:07.350Z,99.99
2018-01-27T04:27:07.357Z,99.99
2018-01-27T04:28:07.367Z,99.99
2018-01-27T04:29:07.379Z,99.99
2018-01-27T04:30:07.384Z,99.99
2018-01-27T04:31:07.401Z,99.99
2018-01-27T04:32:07.400Z,99.99
2018-01-27T04:33:07.405Z,99.99
2018-01-27T04:34:07.414Z,99.99
2018-01-27T04:35:07.421Z,99.99
2018-01-27T04:36:07.424Z,99.99
2018-01-27T04:37:07.433Z,99.99
2018-01-27T04:38:07.443Z,99.99
2018-01-27T04:39:07.444Z,99.99
2018-01-27T04:40:07.454Z,99.99
2018-01-27T04:41:07.454Z,99.99
2018-01-27T04:42:07.466Z,99.99
2018-01-27T04:43:07.673Z,99.99
2018-01-27T04:44:07.481Z,99.99
2018-01-27T04:45:07.491Z,99.99
2018-01-27T04:46:07.491Z,99.99
2018-01-27T04:47:07.497Z,99.99
2018-01-27T04:48:07.923Z,99.99
2018-01-27T04:49:07.537Z,99.99
2018-01-27T04:50:07.521Z,99.99
2018-01-27T04:51:07.526Z,99.99
2018-01-27T04:52:07.534Z,99.99
2018-01-27T04:53:07.552Z,99.99
2018-01-27T04:54:07.556Z,99.99
2018-01-27T04:55:07.556Z,99.99
2018-01-27T04:56:07.558Z,99.99
2018-01-27T04:57:07.568Z,99.99
2018-01-27T04:58:07.586Z,99.99
2018-01-27T04:59:07.580Z,99.99
2018-01-27T05:00:07.593Z,99.99
2018-01-27T05:01:07.598Z,99.99
2018-01-27T05:02:07.610Z,99.99
2018-01-27T05:03:07.628Z,99.99
2018-01-27T05:04:07.652Z,99.99
2018-01-27T05:05:07.631Z,99.99
2018-01-27T05:06:07.635Z,99.99
2018-01-27T05:07:07.645Z,99.99
2018-01-27T05:08:07.650Z,99.99
2018-01-27T05:09:07.648Z,99.99
2018-01-27T05:10:07.659Z,99.99
2018-01-27T05:11:07.668Z,99.99
2018-01-27T05:12:07.677Z,99.99
2018-01-27T05:13:07.681Z,99.99
2018-01-27T05:14:07.691Z,99.99
2018-01-27T05:15:07.692Z,99.99
2018-01-27T05:16:07.704Z,99.99
2018-01-27T05:17:07.719Z,99.99
2018-01-27T05:18:07.776Z,99.99
2018-01-27T05:19:07.725Z,99.99
2018-01-27T05:20:07.730Z,99.99
2018-01-27T05:21:07.749Z,99.99
2018-01-27T05:22:07.743Z,99.99
2018-01-27T05:23:07.741Z,99.99
2018-01-27T05:24:07.766Z,99.99
2018-01-27T05:25:07.769Z,99.99
2018-01-27T05:26:07.776Z,99.99
2018-01-27T05:27:07.779Z,99.99
2018-01-27T05:28:07.782Z,99.99
2018-01-27T05:29:07.790Z,99.99
2018-01-27T05:30:07.859Z,99.99
2018-01-27T05:31:07.808Z,99.99
2018-01-27T05:32:08.396Z,99.99
2018-01-27T05:33:07.824Z,99.99
2018-01-27T05:34:07.830Z,99.99
2018-01-27T05:35:07.833Z,99.99
2018-01-27T05:36:07.843Z,99.99
2018-01-27T05:37:07.850Z,99.99
2018-01-27T05:38:07.854Z,99.99
2018-01-27T05:39:07.862Z,99.99
2018-01-27T05:40:07.862Z,99.99
2018-01-27T05:41:07.879Z,99.99
2018-01-27T05:42:07.875Z,99.99
2018-01-27T05:43:07.891Z,99.99
2018-01-27T05:44:07.899Z,99.99
2018-01-27T05:45:07.907Z,99.99
2018-01-27T05:46:07.910Z,99.99
2018-01-27T05:47:07.923Z,99.99
2018-01-27T05:48:07.933Z,99.99
2018-01-27T05:49:07.933Z,99.99
2018-01-27T05:50:07.941Z,99.99
2018-01-27T05:51:07.945Z,99.99
2018-01-27T05:52:07.952Z,99.99
2018-01-27T05:53:07.957Z,99.99
2018-01-27T05:54:07.966Z,99.99
2018-01-27T05:55:07.984Z,99.99
2018-01-27T05:56:07.977Z,99.99
2018-01-27T05:57:07.989Z,99.99
2018-01-27T05:58:07.991Z,99.99
2018-01-27T05:59:08.001Z,99.99
2018-01-27T06:00:08.007Z,99.99
2018-01-27T06:01:08.016Z,99.99
2018-01-27T06:02:08.025Z,99.99
2018-01-27T06:03:08.031Z,99.99
2018-01-27T06:04:08.038Z,99.99
2018-01-27T06:05:08.041Z,99.99
2018-01-27T06:06:08.046Z,99.99
2018-01-27T06:07:08.059Z,99.99
2018-01-27T06:08:08.072Z,99.99
2018-01-27T06:09:08.073Z,99.99
2018-01-27T06:10:08.083Z,99.99
2018-01-27T06:11:08.089Z,99.99
2018-01-27T06:12:08.088Z,99.99
2018-01-27T06:13:08.100Z,99.99
2018-01-27T06:14:08.111Z,99.99
2018-01-27T06:15:08.100Z,99.99
2018-01-27T06:16:08.120Z,99.99
2018-01-27T06:17:08.132Z,99.99
2018-01-27T06:18:08.133Z,99.99
2018-01-27T06:19:08.146Z,99.99
2018-01-27T06:20:08.903Z,99.99
2018-01-27T06:21:08.160Z,99.99
2018-01-27T06:22:08.160Z,99.99
2018-01-27T06:23:08.171Z,99.99
2018-01-27T06:24:08.178Z,99.99
2018-01-27T06:25:08.186Z,99.99
2018-01-27T06:26:08.183Z,99.99
2018-01-27T06:27:08.195Z,99.99
2018-01-27T06:28:08.209Z,99.99
2018-01-27T06:29:08.213Z,99.99
2018-01-27T06:30:08.223Z,99.99
2018-01-27T06:31:08.228Z,99.99
2018-01-27T06:32:08.233Z,99.99
2018-01-27T06:33:08.257Z,99.99
2018-01-27T06:34:08.245Z,99.99
2018-01-27T06:35:08.253Z,99.99
2018-01-27T06:36:08.270Z,99.99
2018-01-27T06:37:08.267Z,99.99
2018-01-27T06:38:08.272Z,99.99
2018-01-27T06:39:08.280Z,99.99
2018-01-27T06:40:08.289Z,99.99
2018-01-27T06:41:08.297Z,99.99
2018-01-27T06:42:08.306Z,99.99
2018-01-27T06:43:08.411Z,99.99
2018-01-27T06:44:08.319Z,99.99
2018-01-27T06:45:08.331Z,99.99
2018-01-27T06:46:08.331Z,99.99
2018-01-27T06:47:08.344Z,99.99
2018-01-27T06:48:08.342Z,99.99
2018-01-27T06:49:08.352Z,99.99
2018-01-27T06:50:08.358Z,99.99
2018-01-27T06:51:08.375Z,99.99
2018-01-27T06:52:08.374Z,99.99
2018-01-27T06:53:08.381Z,99.99
2018-01-27T06:54:08.438Z,99.99
2018-01-27T06:55:08.401Z,99.99
2018-01-27T06:56:08.422Z,99.99
2018-01-27T06:57:08.411Z,99.99
2018-01-27T06:58:08.431Z,99.99
2018-01-27T06:59:08.427Z,99.99
2018-01-27T07:00:08.433Z,99.99
2018-01-27T07:01:08.437Z,99.99
2018-01-27T07:02:08.455Z,99.99
2018-01-27T07:03:08.443Z,99.99
2018-01-27T07:04:08.466Z,99.99
2018-01-27T07:05:08.475Z,99.99
2018-01-27T07:06:08.552Z,99.99
2018-01-27T07:07:08.483Z,99.99
2018-01-27T07:08:08.490Z,99.99
2018-01-27T07:09:08.492Z,99.99
2018-01-27T07:10:08.502Z,99.99
2018-01-27T07:11:08.574Z,99.99
2018-01-27T07:12:08.518Z,99.99
2018-01-27T07:13:08.520Z,99.99
2018-01-27T07:14:08.533Z,99.99
2018-01-27T07:15:08.533Z,99.99
2018-01-27T07:16:08.542Z,99.99
2018-01-27T07:17:08.546Z,99.99
2018-01-27T07:18:08.564Z,99.99
2018-01-27T07:19:08.567Z,99.99
2018-01-27T07:20:08.570Z,99.99
2018-01-27T07:21:08.587Z,99.99
2018-01-27T07:22:08.591Z,99.99
2018-01-27T07:23:08.591Z,99.99
2018-01-27T07:24:08.604Z,99.99
2018-01-27T07:25:08.607Z,99.99
2018-01-27T07:26:08.619Z,99.99
2018-01-27T07:27:08.619Z,99.99
2018-01-27T07:28:08.628Z,99.99
2018-01-27T07:29:08.631Z,99.99
2018-01-27T07:30:08.649Z,99.99
2018-01-27T07:31:08.655Z,99.99
2018-01-27T07:32:08.657Z,99.99
2018-01-27T07:33:08.671Z,99.99
2018-01-27T07:34:08.726Z,99.99
2018-01-27T07:35:08.678Z,99.99
2018-01-27T07:36:08.696Z,99.99
2018-01-27T07:37:08.694Z,99.99
2018-01-27T07:38:08.698Z,99.99
2018-01-27T07:39:08.706Z,99.99
2018-01-27T07:40:08.715Z,99.99
2018-01-27T07:41:08.724Z,99.99
2018-01-27T07:42:08.731Z,99.99
2018-01-27T07:43:08.738Z,99.99
2018-01-27T07:44:09.412Z,99.99
2018-01-27T07:45:08.756Z,99.99
2018-01-27T07:46:08.756Z,99.99
2018-01-27T07:47:08.772Z,99.99
2018-01-27T07:48:08.766Z,99.99
2018-01-27T07:49:08.783Z,99.99
2018-01-27T07:50:08.802Z,99.99
2018-01-27T07:51:08.800Z,99.99
2018-01-27T07:52:08.793Z,99.99
2018-01-27T07:53:08.808Z,99.99
2018-01-27T07:54:08.809Z,99.99
2018-01-27T07:55:08.814Z,99.99
2018-01-27T07:56:08.831Z,99.99
2018-01-27T07:57:08.836Z,99.99
2018-01-27T07:58:08.849Z,99.99
2018-01-27T07:59:08.851Z,99.99
2018-01-27T08:00:08.859Z,99.99
2018-01-27T08:01:08.870Z,99.99
2018-01-27T08:02:08.881Z,99.99
2018-01-27T08:03:08.878Z,99.99
2018-01-27T08:04:08.896Z,99.99
2018-01-27T08:05:08.899Z,99.99
2018-01-27T08:06:08.908Z,99.99
2018-01-27T08:07:08.908Z,99.99
2018-01-27T08:08:08.915Z,99.99
2018-01-27T08:09:08.929Z,99.99
2018-01-27T08:10:08.923Z,99.99
2018-01-27T08:11:08.929Z,99.99
2018-01-27T08:12:08.982Z,99.99
2018-01-27T08:13:08.953Z,99.99
2018-01-27T08:14:08.963Z,99.99
2018-01-27T08:15:08.959Z,99.99
2018-01-27T08:16:08.973Z,99.99
2018-01-27T08:17:08.980Z,99.99
2018-01-27T08:18:09.004Z,99.99
2018-01-27T08:19:08.995Z,99.99
2018-01-27T08:20:08.996Z,99.99
2018-01-27T08:21:09.009Z,99.99
2018-01-27T08:22:09.017Z,99.99
2018-01-27T08:23:09.025Z,99.99
2018-01-27T08:24:09.026Z,99.99
2018-01-27T08:25:09.043Z,99.99
2018-01-27T08:26:09.045Z,99.99
2018-01-27T08:27:09.053Z,99.99
2018-01-27T08:28:09.073Z,99.99
2018-01-27T08:29:09.067Z,99.99
2018-01-27T08:30:09.074Z,99.99
2018-01-27T08:31:09.079Z,99.99
2018-01-27T08:32:09.089Z,99.99
2018-01-27T08:33:09.090Z,99.99
2018-01-27T08:34:09.103Z,99.99
2018-01-27T08:35:09.116Z,99.99
2018-01-27T08:36:09.116Z,99.99
2018-01-27T08:37:09.119Z,99.99
2018-01-27T08:38:09.129Z,99.99
2018-01-27T08:39:09.141Z,99.99
2018-01-27T08:40:09.138Z,99.99
2018-01-27T08:41:09.152Z,99.99
2018-01-27T08:42:09.159Z,99.99
2018-01-27T08:43:09.161Z,99.99
2018-01-27T08:44:09.163Z,99.99
2018-01-27T08:45:09.219Z,99.99
2018-01-27T08:46:09.188Z,99.99
2018-01-27T08:47:09.195Z,99.99
2018-01-27T08:48:09.204Z,99.99
2018-01-27T08:49:09.207Z,99.99
2018-01-27T08:50:09.229Z,99.99
2018-01-27T08:51:09.220Z,99.99
2018-01-27T08:52:09.224Z,99.99
2018-01-27T08:53:09.233Z,99.99
2018-01-27T08:54:09.243Z,99.99
2018-01-27T08:55:09.241Z,99.99
2018-01-27T08:56:09.252Z,99.99
2018-01-27T08:57:09.266Z,99.99
2018-01-27T08:58:09.275Z,99.99
2018-01-27T08:59:09.277Z,99.99
2018-01-27T09:00:09.349Z,99.99
2018-01-27T09:01:09.291Z,99.99
2018-01-27T09:02:09.304Z,99.99
2018-01-27T09:03:09.316Z,99.99
2018-01-27T09:04:09.312Z,99.99
2018-01-27T09:05:09.321Z,99.99
2018-01-27T09:06:09.322Z,99.99
2018-01-27T09:07:09.338Z,99.99
2018-01-27T09:08:09.334Z,99.99
2018-01-27T09:09:09.350Z,99.99
2018-01-27T09:10:09.370Z,99.99
2018-01-27T09:11:09.367Z,99.99
2018-01-27T09:12:09.373Z,99.99
2018-01-27T09:13:09.933Z,99.99
2018-01-27T09:14:09.388Z,99.99
2018-01-27T09:15:09.393Z,99.99
2018-01-27T09:16:09.416Z,99.99
2018-01-27T09:17:09.411Z,99.99
2018-01-27T09:18:09.418Z,99.99
2018-01-27T09:19:09.439Z,99.99
2018-01-27T09:20:09.433Z,99.99
2018-01-27T09:21:09.437Z,99.99
2018-01-27T09:22:09.453Z,99.99
2018-01-27T09:23:09.457Z,99.99
2018-01-27T09:24:09.469Z,99.99
2018-01-27T09:25:09.474Z,99.99
2018-01-27T09:26:09.482Z,99.99
2018-01-27T09:27:09.486Z,99.99
2018-01-27T09:28:09.492Z,99.99
2018-01-27T09:29:09.507Z,99.99
2018-01-27T09:30:09.506Z,99.99
2018-01-27T09:31:09.514Z,99.99
2018-01-27T09:32:09.696Z,99.99
2018-01-27T09:33:09.537Z,99.99
2018-01-27T09:34:09.546Z,99.99
2018-01-27T09:35:09.543Z,99.99
2018-01-27T09:36:09.563Z,99.99
2018-01-27T09:37:09.564Z,99.99
2018-01-27T09:38:09.568Z,99.99
2018-01-27T09:39:09.585Z,99.99
2018-01-27T09:40:09.591Z,99.99
2018-01-27T09:41:09.596Z,99.99
2018-01-27T09:42:09.607Z,99.99
2018-01-27T09:43:09.610Z,99.99
2018-01-27T09:44:09.616Z,99.99
2018-01-27T09:45:09.628Z,99.99
2018-01-27T09:46:09.633Z,99.99
2018-01-27T09:47:09.669Z,99.99
2018-01-27T09:48:09.648Z,99.99
2018-01-27T09:49:09.663Z,99.99
2018-01-27T09:50:09.685Z,99.99
2018-01-27T09:51:09.689Z,99.99
2018-01-27T09:52:09.686Z,99.99
2018-01-27T09:53:09.694Z,99.99
2018-01-27T09:54:09.708Z,99.99
2018-01-27T09:55:09.712Z,99.99
2018-01-27T09:56:09.732Z,99.99
2018-01-27T09:57:09.731Z,99.84
2018-01-27T09:58:09.740Z,99.93
2018-01-27T09:59:09.748Z,99.99
2018-01-27T10:00:09.757Z,99.93
2018-01-27T10:01:09.768Z,99.93
2018-01-27T10:02:09.772Z,98.31
2018-01-27T10:03:09.791Z,98.97
2018-01-27T10:04:09.825Z,98.22
2018-01-27T10:05:09.798Z,95.70
2018-01-27T10:06:09.812Z,94.65
2018-01-27T10:07:09.858Z,94.27
2018-01-27T10:08:09.824Z,92.27
2018-01-27T10:09:09.835Z,91.89
2018-01-27T10:10:09.845Z,91.13
2018-01-27T10:11:09.856Z,90.22
2018-01-27T10:12:09.865Z,88.32
2018-01-27T10:13:09.880Z,88.27
2018-01-27T10:14:10.002Z,84.46
2018-01-27T10:15:09.894Z,82.50
2018-01-27T10:16:09.906Z,81.93
2018-01-27T10:17:09.917Z,81.49
2018-01-27T10:18:09.931Z,80.83
2018-01-27T10:19:09.951Z,79.35
2018-01-27T10:20:09.952Z,77.30
2018-01-27T10:21:09.962Z,79.03
2018-01-27T10:22:09.974Z,81.85
2018-01-27T10:23:09.991Z,84.52
2018-01-27T10:24:09.991Z,85.80
2018-01-27T10:25:10.033Z,87.13
2018-01-27T10:26:10.043Z,87.42
2018-01-27T10:27:10.041Z,89.09
2018-01-27T10:28:10.053Z,89.94
2018-01-27T10:29:10.068Z,90.70
2018-01-27T10:30:10.078Z,91.18
2018-01-27T10:31:10.099Z,91.18
2018-01-27T10:32:10.096Z,91.42
2018-01-27T10:33:10.120Z,91.47
2018-01-27T10:34:10.122Z,91.47
2018-01-27T10:35:10.134Z,91.85
2018-01-27T10:36:10.134Z,91.37
2018-01-27T10:37:10.155Z,92.03
2018-01-27T10:38:10.184Z,92.99
2018-01-27T10:39:10.182Z,93.08
2018-01-27T10:40:10.191Z,93.37
2018-01-27T10:41:10.199Z,93.94
2018-01-27T10:42:10.212Z,94.89
2018-01-27T10:43:10.219Z,94.79
2018-01-27T10:44:10.232Z,94.98
2018-01-27T10:45:10.276Z,94.98
2018-01-27T10:46:10.251Z,95.94
2018-01-27T10:47:10.259Z,95.75
2018-01-27T10:48:10.271Z,94.42
2018-01-27T10:49:10.282Z,94.70
2018-01-27T10:50:10.298Z,91.27
2018-01-27T10:51:10.298Z,89.65
2018-01-27T10:52:10.300Z,90.56
2018-01-27T10:53:10.317Z,91.70
2018-01-27T10:54:10.331Z,91.51
2018-01-27T10:55:10.338Z,91.80
2018-01-27T10:56:10.349Z,92.61
2018-01-27T10:57:10.355Z,94.22
2018-01-27T10:58:10.372Z,95.03
2018-01-27T10:59:10.379Z,95.32
2018-01-27T11:00:10.388Z,96.08
2018-01-27T11:01:10.402Z,96.74
2018-01-27T11:02:10.411Z,96.45
2018-01-27T11:03:10.415Z,97.31
2018-01-27T11:04:10.424Z,97.50
2018-01-27T11:05:10.430Z,97.50
2018-01-27T11:06:10.448Z,97.22
2018-01-27T11:07:10.452Z,97.22
2018-01-27T11:08:10.452Z,96.26
2018-01-27T11:09:10.480Z,96.55
2018-01-27T11:10:10.495Z,96.17
2018-01-27T11:11:10.491Z,96.36
2018-01-27T11:12:10.501Z,96.45
2018-01-27T11:13:10.512Z,96.55
2018-01-27T11:14:10.517Z,96.26
2018-01-27T11:15:10.534Z,96.45
2018-01-27T11:16:10.535Z,96.55
2018-01-27T11:17:10.547Z,96.65
2018-01-27T11:18:10.555Z,95.98
2018-01-27T11:19:10.561Z,96.55
2018-01-27T11:20:10.572Z,97.12
2018-01-27T11:21:10.578Z,96.98
2018-01-27T11:22:10.594Z,96.65
2018-01-27T11:23:10.601Z,97.50
2018-01-27T11:24:10.600Z,97.31
2018-01-27T11:25:10.617Z,96.84
2018-01-27T11:26:10.621Z,96.93
2018-01-27T11:27:10.661Z,96.50
2018-01-27T11:28:10.636Z,97.07
2018-01-27T11:29:10.642Z,97.64
2018-01-27T11:30:10.651Z,97.41
2018-01-27T11:31:10.693Z,97.12
2018-01-27T11:32:10.670Z,97.31
2018-01-27T11:33:10.676Z,97.60
2018-01-27T11:34:10.686Z,98.36
2018-01-27T11:35:10.696Z,97.50
2018-01-27T11:36:10.715Z,97.12
2018-01-27T11:37:10.712Z,96.84
2018-01-27T11:38:10.707Z,96.55
2018-01-27T11:39:10.721Z,96.45
2018-01-27T11:40:10.766Z,96.45
2018-01-27T11:41:10.742Z,96.45
2018-01-27T11:42:10.747Z,96.36
2018-01-27T11:43:10.754Z,97.12
2018-01-27T11:44:10.766Z,97.60
2018-01-27T11:45:10.773Z,97.60
2018-01-27T11:46:10.776Z,98.26
2018-01-27T11:47:10.790Z,97.83
2018-01-27T11:48:10.789Z,98.02
2018-01-27T11:49:10.807Z,98.88
2018-01-27T11:50:11.462Z,98.93
2018-01-27T11:51:10.817Z,98.93
2018-01-27T11:52:10.821Z,98.07
2018-01-27T11:53:10.826Z,98.74
2018-01-27T11:54:10.840Z,98.26
2018-01-27T11:55:10.840Z,97.97
2018-01-27T11:56:10.859Z,97.31
2018-01-27T11:57:10.859Z,97.60
2018-01-27T11:58:10.865Z,96.93
2018-01-27T11:59:10.882Z,97.03
2018-01-27T12:00:10.888Z,97.12
2018-01-27T12:01:10.895Z,96.84
2018-01-27T12:02:10.905Z,97.12
2018-01-27T12:03:10.910Z,96.84
2018-01-27T12:04:10.926Z,96.74
2018-01-27T12:05:10.939Z,96.84
2018-01-27T12:06:10.936Z,96.65
2018-01-27T12:07:10.945Z,97.12
2018-01-27T12:08:10.949Z,97.50
2018-01-27T12:09:10.957Z,96.93
2018-01-27T12:10:10.979Z,96.45
2018-01-27T12:11:10.971Z,96.74
2018-01-27T12:12:10.985Z,96.45
2018-01-27T12:13:10.992Z,96.26
2018-01-27T12:14:10.994Z,96.36
2018-01-27T12:15:10.998Z,96.55
2018-01-27T12:16:11.015Z,96.93
2018-01-27T12:17:11.019Z,97.41
2018-01-27T12:18:11.080Z,96.93
2018-01-27T12:19:11.034Z,97.22
2018-01-27T12:20:11.051Z,97.60
2018-01-27T12:21:11.054Z,97.50
2018-01-27T12:22:11.085Z,97.03
2018-01-27T12:23:11.059Z,96.55
2018-01-27T12:24:11.075Z,95.79
2018-01-27T12:25:11.085Z,95.70
2018-01-27T12:26:11.094Z,95.98
2018-01-27T12:27:11.102Z,95.89
2018-01-27T12:28:11.153Z,95.70
2018-01-27T12:29:11.124Z,96.08
2018-01-27T12:30:11.149Z,95.98
2018-01-27T12:31:11.125Z,96.17
2018-01-27T12:32:11.142Z,95.79
2018-01-27T12:33:11.145Z,95.41
2018-01-27T12:34:11.162Z,95.70
2018-01-27T12:35:11.170Z,96.08
2018-01-27T12:36:11.184Z,96.45
2018-01-27T12:37:11.220Z,96.26
2018-01-27T12:38:11.191Z,96.55
2018-01-27T12:39:11.194Z,96.84
2018-01-27T12:40:11.215Z,96.84
2018-01-27T12:41:11.245Z,96.45
2018-01-27T12:42:11.268Z,96.65
2018-01-27T12:43:11.264Z,97.78
2018-01-27T12:44:11.252Z,97.50
2018-01-27T12:45:11.247Z,98.17
2018-01-27T12:46:11.249Z,98.07
2018-01-27T12:47:11.274Z,98.64
2018-01-27T12:48:11.289Z,98.36
2018-01-27T12:49:11.288Z,98.07
2018-01-27T12:50:11.298Z,98.07
2018-01-27T12:51:11.299Z,98.36
2018-01-27T12:52:11.330Z,98.07